Terminal Aerodrome Forecast
Issued by NWS

Home | Current Version | Previous Version | Graphics & Text | Print | Product List | Glossary On
Versions: 1 2 3 4 5 6 7 8 9 10 11 12 13 14 15
000
FTUS43 KBIS 171135
TAFDIK
TAF
KDIK 171135Z 1712/1812 23008KT P6SM SKC WS020/28035KT
     FM171500 25014G19KT P6SM SKC
     FM171900 25017G25KT P6SM SKC
     FM172300 22011KT P6SM SKC
     FM180400 24009KT P6SM FEW150 FEW250 WS020/25045KT
     FM181000 30019G28KT P6SM FEW140 SCT250 WS020/30045KT=

USA.gov is the U.S. government's official web portal to all federal, state and local government web resources and services.